sensor_id;sensor_type;location;lat;lon;timestamp;temperature;humidity
11617;DHT22;5864;52.998;9.068;2023-08-07T00:00:31;16.80;99.90
11617;DHT22;5864;52.998;9.068;2023-08-07T00:03:18;16.80;99.90
11617;DHT22;5864;52.998;9.068;2023-08-07T00:06:05;16.70;99.90
11617;DHT22;5864;52.998;9.068;2023-08-07T00:08:50;16.60;99.90
11617;DHT22;5864;52.998;9.068;2023-08-07T00:11:36;16.50;99.90
11617;DHT22;5864;52.998;9.068;2023-08-07T00:14:22;16.50;99.90
11617;DHT22;5864;52.998;9.068;2023-08-07T00:17:07;16.60;99.90
11617;DHT22;5864;52.998;9.068;2023-08-07T00:19:53;16.40;99.90
11617;DHT22;5864;52.998;9.068;2023-08-07T00:22:40;16.50;99.90
11617;DHT22;5864;52.998;9.068;2023-08-07T00:25:25;16.40;99.90
11617;DHT22;5864;52.998;9.068;2023-08-07T00:28:11;16.40;99.90
11617;DHT22;5864;52.998;9.068;2023-08-07T00:30:57;16.40;99.90
11617;DHT22;5864;52.998;9.068;2023-08-07T00:33:43;16.30;99.90
11617;DHT22;5864;52.998;9.068;2023-08-07T00:36:28;16.30;99.90
11617;DHT22;5864;52.998;9.068;2023-08-07T00:39:17;16.30;99.90
11617;DHT22;5864;52.998;9.068;2023-08-07T00:42:03;16.40;99.90
11617;DHT22;5864;52.998;9.068;2023-08-07T00:44:48;16.50;99.90
11617;DHT22;5864;52.998;9.068;2023-08-07T00:47:34;16.50;99.90
11617;DHT22;5864;52.998;9.068;2023-08-07T00:50:22;16.60;99.90
11617;DHT22;5864;52.998;9.068;2023-08-07T00:53:08;16.70;99.90
11617;DHT22;5864;52.998;9.068;2023-08-07T00:55:55;16.60;99.90
11617;DHT22;5864;52.998;9.068;2023-08-07T00:58:42;16.60;99.90
11617;DHT22;5864;52.998;9.068;2023-08-07T01:01:28;16.60;99.90
11617;DHT22;5864;52.998;9.068;2023-08-07T01:04:14;16.50;99.90
11617;DHT22;5864;52.998;9.068;2023-08-07T01:07:00;16.50;99.90
11617;DHT22;5864;52.998;9.068;2023-08-07T01:09:46;16.60;99.90
11617;DHT22;5864;52.998;9.068;2023-08-07T01:12:36;16.50;99.90
11617;DHT22;5864;52.998;9.068;2023-08-07T01:15:30;16.40;99.90
11617;DHT22;5864;52.998;9.068;2023-08-07T01:18:16;16.40;99.90
11617;DHT22;5864;52.998;9.068;2023-08-07T01:21:03;16.40;99.90
11617;DHT22;5864;52.998;9.068;2023-08-07T01:23:50;16.30;99.90
11617;DHT22;5864;52.998;9.068;2023-08-07T01:26:36;16.30;99.90
11617;DHT22;5864;52.998;9.068;2023-08-07T01:29:28;16.30;99.90
11617;DHT22;5864;52.998;9.068;2023-08-07T01:32:21;16.30;99.90
11617;DHT22;5864;52.998;9.068;2023-08-07T01:35:11;16.30;99.90
11617;DHT22;5864;52.998;9.068;2023-08-07T01:37:57;16.20;99.90
11617;DHT22;5864;52.998;9.068;2023-08-07T01:40:46;16.10;99.90
11617;DHT22;5864;52.998;9.068;2023-08-07T01:43:32;16.10;99.90
11617;DHT22;5864;52.998;9.068;2023-08-07T01:46:19;16.20;99.90
11617;DHT22;5864;52.998;9.068;2023-08-07T01:49:04;16.20;99.90
11617;DHT22;5864;52.998;9.068;2023-08-07T01:51:51;16.20;99.90
11617;DHT22;5864;52.998;9.068;2023-08-07T01:54:36;16.20;99.90
11617;DHT22;5864;52.998;9.068;2023-08-07T01:57:23;16.20;99.90
11617;DHT22;5864;52.998;9.068;2023-08-07T02:00:10;16.30;99.90
11617;DHT22;5864;52.998;9.068;2023-08-07T02:02:55;16.30;99.90
11617;DHT22;5864;52.998;9.068;2023-08-07T02:05:41;16.20;99.90
11617;DHT22;5864;52.998;9.068;2023-08-07T02:08:27;16.20;99.90
11617;DHT22;5864;52.998;9.068;2023-08-07T02:11:13;16.10;99.90
11617;DHT22;5864;52.998;9.068;2023-08-07T02:14:00;16.10;99.90
11617;DHT22;5864;52.998;9.068;2023-08-07T02:16:45;16.00;99.90
11617;DHT22;5864;52.998;9.068;2023-08-07T02:19:32;16.00;99.90
11617;DHT22;5864;52.998;9.068;2023-08-07T02:22:17;16.00;99.90
11617;DHT22;5864;52.998;9.068;2023-08-07T02:25:03;16.00;99.90
11617;DHT22;5864;52.998;9.068;2023-08-07T02:27:49;15.90;99.90
11617;DHT22;5864;52.998;9.068;2023-08-07T02:30:36;16.00;99.90
11617;DHT22;5864;52.998;9.068;2023-08-07T02:33:21;16.00;99.90
11617;DHT22;5864;52.998;9.068;2023-08-07T02:36:07;16.00;99.90
11617;DHT22;5864;52.998;9.068;2023-08-07T02:38:53;16.10;99.90
11617;DHT22;5864;52.998;9.068;2023-08-07T02:41:38;16.00;99.90
11617;DHT22;5864;52.998;9.068;2023-08-07T02:44:25;16.00;99.90
11617;DHT22;5864;52.998;9.068;2023-08-07T02:47:11;16.10;99.90
11617;DHT22;5864;52.998;9.068;2023-08-07T02:49:57;16.10;99.90
11617;DHT22;5864;52.998;9.068;2023-08-07T02:52:44;16.10;99.90
11617;DHT22;5864;52.998;9.068;2023-08-07T02:55:29;16.10;99.90
11617;DHT22;5864;52.998;9.068;2023-08-07T02:58:15;16.10;99.90
11617;DHT22;5864;52.998;9.068;2023-08-07T03:01:03;15.90;99.90
11617;DHT22;5864;52.998;9.068;2023-08-07T03:03:50;15.90;99.90
11617;DHT22;5864;52.998;9.068;2023-08-07T03:06:36;15.90;99.90
11617;DHT22;5864;52.998;9.068;2023-08-07T03:09:21;15.90;99.90
11617;DHT22;5864;52.998;9.068;2023-08-07T03:12:08;15.90;99.90
11617;DHT22;5864;52.998;9.068;2023-08-07T03:14:54;15.90;99.90
11617;DHT22;5864;52.998;9.068;2023-08-07T03:17:39;15.80;99.90
11617;DHT22;5864;52.998;9.068;2023-08-07T03:20:27;15.70;99.90
11617;DHT22;5864;52.998;9.068;2023-08-07T03:23:12;15.80;99.90
11617;DHT22;5864;52.998;9.068;2023-08-07T03:26:02;15.80;99.90
11617;DHT22;5864;52.998;9.068;2023-08-07T03:28:48;15.70;99.90
11617;DHT22;5864;52.998;9.068;2023-08-07T03:31:34;15.60;99.90
11617;DHT22;5864;52.998;9.068;2023-08-07T03:34:21;15.70;99.90
11617;DHT22;5864;52.998;9.068;2023-08-07T03:37:07;15.70;99.90
11617;DHT22;5864;52.998;9.068;2023-08-07T03:39:53;15.80;99.90
11617;DHT22;5864;52.998;9.068;2023-08-07T03:42:38;15.80;99.90
11617;DHT22;5864;52.998;9.068;2023-08-07T03:45:24;15.80;99.90
11617;DHT22;5864;52.998;9.068;2023-08-07T03:48:09;15.80;99.90
11617;DHT22;5864;52.998;9.068;2023-08-07T03:51:02;15.80;99.90
11617;DHT22;5864;52.998;9.068;2023-08-07T03:53:49;15.70;99.90
11617;DHT22;5864;52.998;9.068;2023-08-07T03:56:35;15.60;99.90
11617;DHT22;5864;52.998;9.068;2023-08-07T03:59:22;15.60;99.90
11617;DHT22;5864;52.998;9.068;2023-08-07T04:02:09;15.70;99.90
11617;DHT22;5864;52.998;9.068;2023-08-07T04:04:54;15.80;99.90
11617;DHT22;5864;52.998;9.068;2023-08-07T04:07:39;15.80;99.90
11617;DHT22;5864;52.998;9.068;2023-08-07T04:10:27;15.70;99.90
11617;DHT22;5864;52.998;9.068;2023-08-07T04:13:12;15.70;99.90
11617;DHT22;5864;52.998;9.068;2023-08-07T04:15:58;15.80;99.90
11617;DHT22;5864;52.998;9.068;2023-08-07T04:18:44;15.70;99.90
11617;DHT22;5864;52.998;9.068;2023-08-07T04:21:30;15.70;99.90
11617;DHT22;5864;52.998;9.068;2023-08-07T04:24:15;15.70;99.90
11617;DHT22;5864;52.998;9.068;2023-08-07T04:27:03;15.70;99.90
11617;DHT22;5864;52.998;9.068;2023-08-07T04:29:49;15.80;99.90
11617;DHT22;5864;52.998;9.068;2023-08-07T04:32:34;15.80;99.90
11617;DHT22;5864;52.998;9.068;2023-08-07T04:35:20;15.80;99.90
11617;DHT22;5864;52.998;9.068;2023-08-07T04:38:05;15.70;99.90
11617;DHT22;5864;52.998;9.068;2023-08-07T04:40:52;15.60;99.90
11617;DHT22;5864;52.998;9.068;2023-08-07T04:43:39;15.60;99.90
11617;DHT22;5864;52.998;9.068;2023-08-07T04:46:26;15.60;99.90
11617;DHT22;5864;52.998;9.068;2023-08-07T04:49:11;15.60;99.90
11617;DHT22;5864;52.998;9.068;2023-08-07T04:51:57;15.80;99.90
11617;DHT22;5864;52.998;9.068;2023-08-07T04:54:42;15.70;99.90
11617;DHT22;5864;52.998;9.068;2023-08-07T04:57:29;15.80;99.90
11617;DHT22;5864;52.998;9.068;2023-08-07T05:00:16;15.80;99.90
11617;DHT22;5864;52.998;9.068;2023-08-07T05:03:02;15.80;99.90
11617;DHT22;5864;52.998;9.068;2023-08-07T05:05:48;15.90;99.90
11617;DHT22;5864;52.998;9.068;2023-08-07T05:08:33;15.90;99.90
11617;DHT22;5864;52.998;9.068;2023-08-07T05:11:19;15.90;99.90
11617;DHT22;5864;52.998;9.068;2023-08-07T05:14:05;15.90;99.90
11617;DHT22;5864;52.998;9.068;2023-08-07T05:16:52;15.80;99.90
11617;DHT22;5864;52.998;9.068;2023-08-07T05:19:37;15.90;99.90
11617;DHT22;5864;52.998;9.068;2023-08-07T05:22:23;16.00;99.90
11617;DHT22;5864;52.998;9.068;2023-08-07T05:25:08;15.90;99.90
11617;DHT22;5864;52.998;9.068;2023-08-07T05:27:56;15.80;99.90
11617;DHT22;5864;52.998;9.068;2023-08-07T05:30:41;15.70;99.90
11617;DHT22;5864;52.998;9.068;2023-08-07T05:33:28;15.70;99.90
11617;DHT22;5864;52.998;9.068;2023-08-07T05:36:13;15.80;99.90
11617;DHT22;5864;52.998;9.068;2023-08-07T05:38:59;15.80;99.90
11617;DHT22;5864;52.998;9.068;2023-08-07T05:41:44;15.70;99.90
11617;DHT22;5864;52.998;9.068;2023-08-07T05:44:31;15.60;99.90
11617;DHT22;5864;52.998;9.068;2023-08-07T05:47:16;15.70;99.90
11617;DHT22;5864;52.998;9.068;2023-08-07T05:50:04;15.80;99.90
11617;DHT22;5864;52.998;9.068;2023-08-07T05:52:50;15.80;99.90
11617;DHT22;5864;52.998;9.068;2023-08-07T05:55:35;15.90;99.90
11617;DHT22;5864;52.998;9.068;2023-08-07T05:58:24;16.00;99.90
11617;DHT22;5864;52.998;9.068;2023-08-07T06:01:09;16.00;99.90
11617;DHT22;5864;52.998;9.068;2023-08-07T06:03:55;16.10;99.90
11617;DHT22;5864;52.998;9.068;2023-08-07T06:06:42;16.10;99.90
11617;DHT22;5864;52.998;9.068;2023-08-07T06:09:28;16.00;99.90
11617;DHT22;5864;52.998;9.068;2023-08-07T06:12:13;16.10;99.90
11617;DHT22;5864;52.998;9.068;2023-08-07T06:14:59;16.10;99.90
11617;DHT22;5864;52.998;9.068;2023-08-07T06:17:44;16.20;99.90
11617;DHT22;5864;52.998;9.068;2023-08-07T06:20:30;16.30;99.90
11617;DHT22;5864;52.998;9.068;2023-08-07T06:23:17;16.30;99.90
11617;DHT22;5864;52.998;9.068;2023-08-07T06:26:03;16.40;99.90
11617;DHT22;5864;52.998;9.068;2023-08-07T06:28:49;16.90;99.90
11617;DHT22;5864;52.998;9.068;2023-08-07T06:31:35;17.30;99.90
11617;DHT22;5864;52.998;9.068;2023-08-07T06:34:20;17.60;99.90
11617;DHT22;5864;52.998;9.068;2023-08-07T06:37:06;17.90;99.90
11617;DHT22;5864;52.998;9.068;2023-08-07T06:39:53;17.70;99.90
11617;DHT22;5864;52.998;9.068;2023-08-07T06:42:39;17.60;99.90
11617;DHT22;5864;52.998;9.068;2023-08-07T06:45:24;17.50;99.90
11617;DHT22;5864;52.998;9.068;2023-08-07T06:48:10;17.40;99.90
11617;DHT22;5864;52.998;9.068;2023-08-07T06:50:55;17.30;99.90
11617;DHT22;5864;52.998;9.068;2023-08-07T06:53:41;17.30;99.90
11617;DHT22;5864;52.998;9.068;2023-08-07T06:56:28;17.50;99.90
11617;DHT22;5864;52.998;9.068;2023-08-07T06:59:14;18.00;99.90
11617;DHT22;5864;52.998;9.068;2023-08-07T07:01:59;18.50;99.90
11617;DHT22;5864;52.998;9.068;2023-08-07T07:04:46;18.60;93.30
11617;DHT22;5864;52.998;9.068;2023-08-07T07:07:31;19.00;47.50
11617;DHT22;5864;52.998;9.068;2023-08-07T07:10:17;19.30;37.70
11617;DHT22;5864;52.998;9.068;2023-08-07T07:13:04;19.40;1.00
11617;DHT22;5864;52.998;9.068;2023-08-07T07:15:53;18.80;1.00
11617;DHT22;5864;52.998;9.068;2023-08-07T07:18:39;18.40;1.00
11617;DHT22;5864;52.998;9.068;2023-08-07T07:21:24;17.80;99.90
11617;DHT22;5864;52.998;9.068;2023-08-07T07:24:10;17.40;99.90
11617;DHT22;5864;52.998;9.068;2023-08-07T07:26:55;17.30;99.90
11617;DHT22;5864;52.998;9.068;2023-08-07T07:29:42;17.30;99.90
11617;DHT22;5864;52.998;9.068;2023-08-07T07:32:27;17.30;99.90
11617;DHT22;5864;52.998;9.068;2023-08-07T07:35:13;17.40;99.90
11617;DHT22;5864;52.998;9.068;2023-08-07T07:38:00;17.40;99.90
11617;DHT22;5864;52.998;9.068;2023-08-07T07:40:45;17.50;99.90
11617;DHT22;5864;52.998;9.068;2023-08-07T07:43:31;17.50;99.90
11617;DHT22;5864;52.998;9.068;2023-08-07T07:46:18;17.60;99.90
11617;DHT22;5864;52.998;9.068;2023-08-07T07:49:04;17.70;99.90
11617;DHT22;5864;52.998;9.068;2023-08-07T07:51:49;17.70;99.90
11617;DHT22;5864;52.998;9.068;2023-08-07T07:54:36;17.60;99.90
11617;DHT22;5864;52.998;9.068;2023-08-07T07:57:21;17.70;99.90
11617;DHT22;5864;52.998;9.068;2023-08-07T08:00:08;17.90;93.00
11617;DHT22;5864;52.998;9.068;2023-08-07T08:02:55;17.90;96.20
11617;DHT22;5864;52.998;9.068;2023-08-07T08:05:41;17.80;93.50
11617;DHT22;5864;52.998;9.068;2023-08-07T08:08:26;17.60;94.30
11617;DHT22;5864;52.998;9.068;2023-08-07T08:11:13;18.20;99.90
11617;DHT22;5864;52.998;9.068;2023-08-07T08:13:59;18.80;1.00
11617;DHT22;5864;52.998;9.068;2023-08-07T08:16:45;19.00;1.00
11617;DHT22;5864;52.998;9.068;2023-08-07T08:19:32;18.90;99.90
11617;DHT22;5864;52.998;9.068;2023-08-07T08:22:17;18.90;99.90
11617;DHT22;5864;52.998;9.068;2023-08-07T08:25:03;19.00;1.00
11617;DHT22;5864;52.998;9.068;2023-08-07T08:27:51;19.00;1.00
11617;DHT22;5864;52.998;9.068;2023-08-07T08:30:36;18.90;99.90
11617;DHT22;5864;52.998;9.068;2023-08-07T08:33:23;18.80;1.00
11617;DHT22;5864;52.998;9.068;2023-08-07T08:36:09;18.50;99.90
11617;DHT22;5864;52.998;9.068;2023-08-07T08:38:56;18.80;1.00
11617;DHT22;5864;52.998;9.068;2023-08-07T08:41:42;18.70;99.90
11617;DHT22;5864;52.998;9.068;2023-08-07T08:44:31;19.40;1.00
11617;DHT22;5864;52.998;9.068;2023-08-07T08:47:22;19.80;60.10
11617;DHT22;5864;52.998;9.068;2023-08-07T08:50:09;20.20;1.00
11617;DHT22;5864;52.998;9.068;2023-08-07T08:52:57;20.10;7.60
11617;DHT22;5864;52.998;9.068;2023-08-07T08:55:43;20.10;1.00
11617;DHT22;5864;52.998;9.068;2023-08-07T08:58:31;19.80;90.70
11617;DHT22;5864;52.998;9.068;2023-08-07T09:01:17;19.60;1.00
11617;DHT22;5864;52.998;9.068;2023-08-07T09:04:04;19.30;99.90
11617;DHT22;5864;52.998;9.068;2023-08-07T09:06:50;19.10;1.00
11617;DHT22;5864;52.998;9.068;2023-08-07T09:09:36;19.10;1.00
11617;DHT22;5864;52.998;9.068;2023-08-07T09:12:26;19.60;1.00
11617;DHT22;5864;52.998;9.068;2023-08-07T09:15:16;20.20;99.80
11617;DHT22;5864;52.998;9.068;2023-08-07T09:18:06;21.10;99.90
11617;DHT22;5864;52.998;9.068;2023-08-07T09:20:54;21.40;7.70
11617;DHT22;5864;52.998;9.068;2023-08-07T09:23:41;20.80;99.90
11617;DHT22;5864;52.998;9.068;2023-08-07T09:26:28;19.80;1.00
11617;DHT22;5864;52.998;9.068;2023-08-07T09:29:13;19.10;1.00
11617;DHT22;5864;52.998;9.068;2023-08-07T09:32:06;18.70;99.90
11617;DHT22;5864;52.998;9.068;2023-08-07T09:34:53;18.00;99.90
11617;DHT22;5864;52.998;9.068;2023-08-07T09:37:43;17.60;99.90
11617;DHT22;5864;52.998;9.068;2023-08-07T09:40:29;16.80;1.00
11617;DHT22;5864;52.998;9.068;2023-08-07T09:43:22;16.60;1.00
11617;DHT22;5864;52.998;9.068;2023-08-07T09:46:08;16.60;1.00
11617;DHT22;5864;52.998;9.068;2023-08-07T09:48:57;16.70;1.00
11617;DHT22;5864;52.998;9.068;2023-08-07T09:51:44;16.50;1.00
11617;DHT22;5864;52.998;9.068;2023-08-07T09:54:31;16.70;1.00
11617;DHT22;5864;52.998;9.068;2023-08-07T09:57:17;17.20;1.00
11617;DHT22;5864;52.998;9.068;2023-08-07T10:00:08;18.00;1.00
11617;DHT22;5864;52.998;9.068;2023-08-07T10:02:55;18.80;42.60
11617;DHT22;5864;52.998;9.068;2023-08-07T10:05:42;19.10;66.30
11617;DHT22;5864;52.998;9.068;2023-08-07T10:08:28;19.60;1.00
11617;DHT22;5864;52.998;9.068;2023-08-07T10:11:14;19.80;99.90
11617;DHT22;5864;52.998;9.068;2023-08-07T10:14:01;20.10;1.00
11617;DHT22;5864;52.998;9.068;2023-08-07T10:16:49;20.50;99.90
11617;DHT22;5864;52.998;9.068;2023-08-07T10:19:36;20.80;99.90
11617;DHT22;5864;52.998;9.068;2023-08-07T10:22:23;20.90;1.00
11617;DHT22;5864;52.998;9.068;2023-08-07T10:25:10;20.90;1.00
11617;DHT22;5864;52.998;9.068;2023-08-07T10:27:56;20.30;98.60
11617;DHT22;5864;52.998;9.068;2023-08-07T10:30:45;19.50;99.90
11617;DHT22;5864;52.998;9.068;2023-08-07T10:33:32;19.20;1.00
11617;DHT22;5864;52.998;9.068;2023-08-07T10:36:19;19.00;1.00
11617;DHT22;5864;52.998;9.068;2023-08-07T10:39:08;18.70;1.00
11617;DHT22;5864;52.998;9.068;2023-08-07T10:41:54;18.50;99.90
11617;DHT22;5864;52.998;9.068;2023-08-07T10:44:48;18.60;12.50
11617;DHT22;5864;52.998;9.068;2023-08-07T10:47:34;19.00;1.00
11617;DHT22;5864;52.998;9.068;2023-08-07T10:50:27;19.90;1.00
11617;DHT22;5864;52.998;9.068;2023-08-07T10:53:19;20.70;1.00
11617;DHT22;5864;52.998;9.068;2023-08-07T10:56:06;21.20;68.20
11617;DHT22;5864;52.998;9.068;2023-08-07T10:58:52;21.10;99.90
11617;DHT22;5864;52.998;9.068;2023-08-07T11:01:41;21.20;1.00
11617;DHT22;5864;52.998;9.068;2023-08-07T11:04:28;21.00;1.00
11617;DHT22;5864;52.998;9.068;2023-08-07T11:07:24;20.50;37.00
11617;DHT22;5864;52.998;9.068;2023-08-07T11:10:13;19.40;1.00
11617;DHT22;5864;52.998;9.068;2023-08-07T11:13:00;19.00;1.00
11617;DHT22;5864;52.998;9.068;2023-08-07T11:15:46;18.50;1.00
11617;DHT22;5864;52.998;9.068;2023-08-07T11:18:32;18.40;1.00
11617;DHT22;5864;52.998;9.068;2023-08-07T11:21:20;18.60;99.90
11617;DHT22;5864;52.998;9.068;2023-08-07T11:24:07;18.30;1.00
11617;DHT22;5864;52.998;9.068;2023-08-07T11:26:53;18.30;1.00
11617;DHT22;5864;52.998;9.068;2023-08-07T11:29:40;18.90;1.00
11617;DHT22;5864;52.998;9.068;2023-08-07T11:32:27;19.60;99.90
11617;DHT22;5864;52.998;9.068;2023-08-07T11:35:12;20.00;99.90
11617;DHT22;5864;52.998;9.068;2023-08-07T11:37:58;20.80;99.90
11617;DHT22;5864;52.998;9.068;2023-08-07T11:40:44;20.50;72.80
11617;DHT22;5864;52.998;9.068;2023-08-07T11:43:31;21.00;99.90
11617;DHT22;5864;52.998;9.068;2023-08-07T11:46:17;21.00;99.90
11617;DHT22;5864;52.998;9.068;2023-08-07T11:49:03;21.20;1.00
11617;DHT22;5864;52.998;9.068;2023-08-07T11:51:50;21.40;99.90
11617;DHT22;5864;52.998;9.068;2023-08-07T11:54:36;21.80;99.90
11617;DHT22;5864;52.998;9.068;2023-08-07T11:57:23;22.00;1.00
11617;DHT22;5864;52.998;9.068;2023-08-07T12:00:10;22.00;1.00
11617;DHT22;5864;52.998;9.068;2023-08-07T12:02:57;21.30;1.00
11617;DHT22;5864;52.998;9.068;2023-08-07T12:05:43;20.70;94.10
11617;DHT22;5864;52.998;9.068;2023-08-07T12:08:31;21.30;99.90
11617;DHT22;5864;52.998;9.068;2023-08-07T12:14:06;22.40;1.00
11617;DHT22;5864;52.998;9.068;2023-08-07T12:16:51;22.50;1.00
11617;DHT22;5864;52.998;9.068;2023-08-07T12:19:38;22.80;1.00
11617;DHT22;5864;52.998;9.068;2023-08-07T12:22:27;23.10;1.00
11617;DHT22;5864;52.998;9.068;2023-08-07T12:25:13;23.20;1.00
11617;DHT22;5864;52.998;9.068;2023-08-07T12:27:59;23.40;99.90
11617;DHT22;5864;52.998;9.068;2023-08-07T12:30:46;23.00;99.90
11617;DHT22;5864;52.998;9.068;2023-08-07T12:33:32;22.60;99.90
11617;DHT22;5864;52.998;9.068;2023-08-07T12:36:18;22.70;99.90
11617;DHT22;5864;52.998;9.068;2023-08-07T12:39:03;22.40;99.90
11617;DHT22;5864;52.998;9.068;2023-08-07T12:41:50;21.70;1.00
11617;DHT22;5864;52.998;9.068;2023-08-07T12:44:36;21.20;1.00
11617;DHT22;5864;52.998;9.068;2023-08-07T12:47:23;21.00;1.00
11617;DHT22;5864;52.998;9.068;2023-08-07T12:50:08;20.80;1.00
11617;DHT22;5864;52.998;9.068;2023-08-07T12:52:54;20.50;1.00
11617;DHT22;5864;52.998;9.068;2023-08-07T12:55:39;20.50;1.00
11617;DHT22;5864;52.998;9.068;2023-08-07T12:58:25;20.80;1.00
11617;DHT22;5864;52.998;9.068;2023-08-07T13:01:13;21.20;1.00
11617;DHT22;5864;52.998;9.068;2023-08-07T13:04:01;20.90;1.00
11617;DHT22;5864;52.998;9.068;2023-08-07T13:06:48;20.80;1.00
11617;DHT22;5864;52.998;9.068;2023-08-07T13:09:34;20.60;1.00
11617;DHT22;5864;52.998;9.068;2023-08-07T13:12:20;20.20;1.00
11617;DHT22;5864;52.998;9.068;2023-08-07T13:17:39;19.90;1.00
11617;DHT22;5864;52.998;9.068;2023-08-07T13:20:26;19.90;1.00
11617;DHT22;5864;52.998;9.068;2023-08-07T13:23:17;20.00;1.00
11617;DHT22;5864;52.998;9.068;2023-08-07T13:26:02;20.00;1.00
11617;DHT22;5864;52.998;9.068;2023-08-07T13:28:48;20.20;1.00
11617;DHT22;5864;52.998;9.068;2023-08-07T13:31:34;20.20;1.00
11617;DHT22;5864;52.998;9.068;2023-08-07T13:34:19;20.30;1.00
11617;DHT22;5864;52.998;9.068;2023-08-07T13:37:07;20.20;1.00
11617;DHT22;5864;52.998;9.068;2023-08-07T13:39:53;20.50;1.00
11617;DHT22;5864;52.998;9.068;2023-08-07T13:42:40;20.30;1.00
11617;DHT22;5864;52.998;9.068;2023-08-07T13:45:25;20.40;1.00
11617;DHT22;5864;52.998;9.068;2023-08-07T13:48:11;20.70;1.00
11617;DHT22;5864;52.998;9.068;2023-08-07T13:50:57;20.50;1.00
11617;DHT22;5864;52.998;9.068;2023-08-07T13:53:44;20.60;1.00
11617;DHT22;5864;52.998;9.068;2023-08-07T13:56:30;20.60;99.90
11617;DHT22;5864;52.998;9.068;2023-08-07T13:59:16;20.20;99.90
11617;DHT22;5864;52.998;9.068;2023-08-07T14:02:02;20.20;99.90
11617;DHT22;5864;52.998;9.068;2023-08-07T14:04:47;19.90;99.90
11617;DHT22;5864;52.998;9.068;2023-08-07T14:07:34;19.70;1.00
11617;DHT22;5864;52.998;9.068;2023-08-07T14:13:07;19.70;1.00
11617;DHT22;5864;52.998;9.068;2023-08-07T14:15:53;19.60;1.00
11617;DHT22;5864;52.998;9.068;2023-08-07T14:18:40;19.50;1.00
11617;DHT22;5864;52.998;9.068;2023-08-07T14:21:25;19.90;1.00
11617;DHT22;5864;52.998;9.068;2023-08-07T14:24:11;19.70;1.00
11617;DHT22;5864;52.998;9.068;2023-08-07T14:26:58;19.80;1.00
11617;DHT22;5864;52.998;9.068;2023-08-07T14:29:43;19.70;1.00
11617;DHT22;5864;52.998;9.068;2023-08-07T14:32:29;19.50;1.00
11617;DHT22;5864;52.998;9.068;2023-08-07T14:35:15;19.30;1.00
11617;DHT22;5864;52.998;9.068;2023-08-07T14:38:00;18.80;1.00
11617;DHT22;5864;52.998;9.068;2023-08-07T14:40:46;18.70;7.40
11617;DHT22;5864;52.998;9.068;2023-08-07T14:43:33;18.50;99.90
11617;DHT22;5864;52.998;9.068;2023-08-07T14:46:20;18.20;99.90
11617;DHT22;5864;52.998;9.068;2023-08-07T14:49:07;18.20;1.00
11617;DHT22;5864;52.998;9.068;2023-08-07T14:51:53;18.40;99.90
11617;DHT22;5864;52.998;9.068;2023-08-07T14:54:39;18.60;99.90
11617;DHT22;5864;52.998;9.068;2023-08-07T14:57:24;18.80;99.90
11617;DHT22;5864;52.998;9.068;2023-08-07T15:00:14;18.70;80.20
11617;DHT22;5864;52.998;9.068;2023-08-07T15:03:00;18.50;1.00
11617;DHT22;5864;52.998;9.068;2023-08-07T15:05:46;18.40;99.90
11617;DHT22;5864;52.998;9.068;2023-08-07T15:08:32;18.80;52.20
11617;DHT22;5864;52.998;9.068;2023-08-07T15:11:18;18.90;1.00
11617;DHT22;5864;52.998;9.068;2023-08-07T15:14:03;19.20;1.00
11617;DHT22;5864;52.998;9.068;2023-08-07T15:16:51;19.30;1.00
11617;DHT22;5864;52.998;9.068;2023-08-07T15:19:37;19.70;1.00
11617;DHT22;5864;52.998;9.068;2023-08-07T15:22:22;19.60;1.00
11617;DHT22;5864;52.998;9.068;2023-08-07T15:25:09;19.50;1.00
11617;DHT22;5864;52.998;9.068;2023-08-07T15:27:58;19.40;1.00
11617;DHT22;5864;52.998;9.068;2023-08-07T15:30:47;19.50;1.00
11617;DHT22;5864;52.998;9.068;2023-08-07T15:33:35;19.50;1.00
11617;DHT22;5864;52.998;9.068;2023-08-07T15:36:21;19.40;1.00
11617;DHT22;5864;52.998;9.068;2023-08-07T15:39:07;19.10;1.00
11617;DHT22;5864;52.998;9.068;2023-08-07T15:41:52;19.00;1.00
11617;DHT22;5864;52.998;9.068;2023-08-07T15:44:39;19.00;1.00
11617;DHT22;5864;52.998;9.068;2023-08-07T15:47:24;18.90;1.00
11617;DHT22;5864;52.998;9.068;2023-08-07T15:50:11;18.30;1.00
11617;DHT22;5864;52.998;9.068;2023-08-07T15:52:58;17.70;1.00
11617;DHT22;5864;52.998;9.068;2023-08-07T15:55:45;17.20;31.10
11617;DHT22;5864;52.998;9.068;2023-08-07T15:58:31;17.00;1.00
11617;DHT22;5864;52.998;9.068;2023-08-07T16:01:16;16.70;99.90
11617;DHT22;5864;52.998;9.068;2023-08-07T16:04:02;16.60;1.00
11617;DHT22;5864;52.998;9.068;2023-08-07T16:06:49;16.70;1.00
11617;DHT22;5864;52.998;9.068;2023-08-07T16:09:34;16.80;1.00
11617;DHT22;5864;52.998;9.068;2023-08-07T16:12:21;16.90;1.00
11617;DHT22;5864;52.998;9.068;2023-08-07T16:15:07;16.70;15.70
11617;DHT22;5864;52.998;9.068;2023-08-07T16:17:53;16.60;90.90
11617;DHT22;5864;52.998;9.068;2023-08-07T16:20:41;16.80;99.90
11617;DHT22;5864;52.998;9.068;2023-08-07T16:23:29;16.90;26.80
11617;DHT22;5864;52.998;9.068;2023-08-07T16:26:15;16.90;1.00
11617;DHT22;5864;52.998;9.068;2023-08-07T16:29:00;17.00;99.90
11617;DHT22;5864;52.998;9.068;2023-08-07T16:31:46;17.00;9.20
11617;DHT22;5864;52.998;9.068;2023-08-07T16:34:31;17.00;99.90
11617;DHT22;5864;52.998;9.068;2023-08-07T16:37:18;17.10;1.00
11617;DHT22;5864;52.998;9.068;2023-08-07T16:40:06;17.20;99.90
11617;DHT22;5864;52.998;9.068;2023-08-07T16:42:52;17.50;1.00
11617;DHT22;5864;52.998;9.068;2023-08-07T16:45:38;17.40;99.90
11617;DHT22;5864;52.998;9.068;2023-08-07T16:48:23;17.40;99.90
11617;DHT22;5864;52.998;9.068;2023-08-07T16:51:09;17.40;1.00
11617;DHT22;5864;52.998;9.068;2023-08-07T16:53:56;17.40;1.00
11617;DHT22;5864;52.998;9.068;2023-08-07T16:56:43;17.40;1.00
11617;DHT22;5864;52.998;9.068;2023-08-07T16:59:29;17.40;1.00
11617;DHT22;5864;52.998;9.068;2023-08-07T17:02:15;17.50;99.90
11617;DHT22;5864;52.998;9.068;2023-08-07T17:05:01;17.40;1.00
11617;DHT22;5864;52.998;9.068;2023-08-07T17:07:47;17.30;1.00
11617;DHT22;5864;52.998;9.068;2023-08-07T17:10:32;17.30;1.00
11617;DHT22;5864;52.998;9.068;2023-08-07T17:13:19;17.20;1.00
11617;DHT22;5864;52.998;9.068;2023-08-07T17:16:07;17.30;99.90
11617;DHT22;5864;52.998;9.068;2023-08-07T17:18:54;17.40;1.00
11617;DHT22;5864;52.998;9.068;2023-08-07T17:21:39;17.00;36.50
11617;DHT22;5864;52.998;9.068;2023-08-07T17:24:26;16.90;1.00
11617;DHT22;5864;52.998;9.068;2023-08-07T17:27:11;16.80;1.00
11617;DHT22;5864;52.998;9.068;2023-08-07T17:29:58;16.70;1.00
11617;DHT22;5864;52.998;9.068;2023-08-07T17:32:44;16.70;99.90
11617;DHT22;5864;52.998;9.068;2023-08-07T17:35:30;16.80;1.00
11617;DHT22;5864;52.998;9.068;2023-08-07T17:38:16;16.70;1.00
11617;DHT22;5864;52.998;9.068;2023-08-07T17:41:03;16.60;99.90
11617;DHT22;5864;52.998;9.068;2023-08-07T17:43:48;16.60;1.00
11617;DHT22;5864;52.998;9.068;2023-08-07T17:46:35;16.60;1.00
11617;DHT22;5864;52.998;9.068;2023-08-07T17:49:21;16.70;99.90
11617;DHT22;5864;52.998;9.068;2023-08-07T17:52:07;16.80;60.80
11617;DHT22;5864;52.998;9.068;2023-08-07T17:54:52;16.70;99.90
11617;DHT22;5864;52.998;9.068;2023-08-07T17:57:39;16.80;1.00
11617;DHT22;5864;52.998;9.068;2023-08-07T18:00:24;16.70;1.00
11617;DHT22;5864;52.998;9.068;2023-08-07T18:03:11;16.50;1.00